Millenium Air

Millenium Air Since 1998



 METAR AND TAF INFORMATION
METAR FOR ESGG
ADDS - METARS form results

(0630 UTC 18 April 2021)
Data provider http://aviationweather.gov/metar/data/
 
METAR text: ESGG 180620Z 04008KT CAVOK 06/M02 Q1026 R03/09//95
Conditions at: ESGG (GOTEBORG/LANDVET, SE) observed 0620 UTC 18 April 2021
Temperature: 6.0°C (43°F)
Dewpoint: -2.0°C (28°F) [RH = 56%]
Pressure (altimeter): 30.30 inches Hg (1026.0 mb)
Winds: from the NE (40 degrees) at 9 MPH (8 knots; 4.1 m/s)
Visibility: 6 or more miles (10+ km)
Ceiling: ceiling and visibility are OK
Clouds: unknown
Weather: no significant weather observed at this time

METAR text: ESGG 180550Z 03007KT CAVOK 05/M03 Q1026 R03/09//95
Conditions at: ESGG (GOTEBORG/LANDVET, SE) observed 0550 UTC 18 April 2021
Temperature: 5.0°C (41°F)
Dewpoint: -3.0°C (27°F) [RH = 56%]
Pressure (altimeter): 30.30 inches Hg (1026.0 mb)
Winds: from the NNE (30 degrees) at 8 MPH (7 knots; 3.6 m/s)
Visibility: 6 or more miles (10+ km)
Ceiling: ceiling and visibility are OK
Clouds: unknown
Weather: no significant weather observed at this time

Forecast for: ESGG (GOTEBORG/LANDVET, SE)
Text: TAF ESGG 180530Z 1806/1906 05008KT CAVOK
Forecast period: 0600 UTC 18 April 2021 to 0600 UTC 19 April 2021
Forecast type: FROM: standard forecast or significant change
Winds: from the NE (50 degrees) at 9 MPH (8 knots; 4.1 m/s)
Visibility: 6 or more miles (10+ km)
Ceiling: unknown
Clouds: missing
Weather: NSW  (no significant weather)

 AIRPORT MAP

 RUNWAY INFORMATION
Runway 03 Runway length 10823 ft Runway width 148 ft
Runway elevation 478 ft Runway displaced threshold 0 ft Runway heading 26
Runway 21 Runway length 10823 ft Runway width 148 ft
Runway elevation 506 ft Runway displaced threshold 0 ft Runway heading 206

 AIRPORT FREQUENCIES
Type ATIS Name ATIS Frequency 118.375 MHZ
Type GCCD Name GND Frequency 121.9 MHZ
Type TCA Name GOTEBORG A Frequency 124.675 MHZ
Type TWR Name TWR Frequency 118.6 MHZ

 AIRPORT NEAR NAVIGATION AIDS
Type VOR-DME Name Landvetter Frequency 114600 KHZ